sensor_id;sensor_type;location;lat;lon;timestamp;temperature;humidity
21811;DHT22;11067;48.788;9.208;2023-04-22T00:00:12;12.70;99.90
21811;DHT22;11067;48.788;9.208;2023-04-22T00:02:38;12.70;99.90
21811;DHT22;11067;48.788;9.208;2023-04-22T00:05:04;12.70;99.90
21811;DHT22;11067;48.788;9.208;2023-04-22T00:07:31;12.70;99.90
21811;DHT22;11067;48.788;9.208;2023-04-22T00:09:56;12.70;99.90
21811;DHT22;11067;48.788;9.208;2023-04-22T00:12:22;12.60;99.90
21811;DHT22;11067;48.788;9.208;2023-04-22T00:14:47;12.70;99.90
21811;DHT22;11067;48.788;9.208;2023-04-22T00:17:13;12.70;99.90
21811;DHT22;11067;48.788;9.208;2023-04-22T00:19:39;12.60;99.90
21811;DHT22;11067;48.788;9.208;2023-04-22T00:22:05;12.70;99.90
21811;DHT22;11067;48.788;9.208;2023-04-22T00:24:31;12.70;99.90
21811;DHT22;11067;48.788;9.208;2023-04-22T00:26:57;12.60;99.90
21811;DHT22;11067;48.788;9.208;2023-04-22T00:29:23;12.60;99.90
21811;DHT22;11067;48.788;9.208;2023-04-22T00:31:49;12.60;99.90
21811;DHT22;11067;48.788;9.208;2023-04-22T00:34:14;12.60;99.90
21811;DHT22;11067;48.788;9.208;2023-04-22T00:36:42;12.70;99.90
21811;DHT22;11067;48.788;9.208;2023-04-22T00:39:07;12.60;99.90
21811;DHT22;11067;48.788;9.208;2023-04-22T00:41:34;12.60;99.90
21811;DHT22;11067;48.788;9.208;2023-04-22T00:44:00;12.70;99.90
21811;DHT22;11067;48.788;9.208;2023-04-22T00:46:25;12.60;99.90
21811;DHT22;11067;48.788;9.208;2023-04-22T00:48:52;12.50;99.90
21811;DHT22;11067;48.788;9.208;2023-04-22T00:51:17;12.40;99.90
21811;DHT22;11067;48.788;9.208;2023-04-22T00:53:43;12.40;99.90
21811;DHT22;11067;48.788;9.208;2023-04-22T00:56:10;12.30;99.90
21811;DHT22;11067;48.788;9.208;2023-04-22T00:58:36;12.30;99.90
21811;DHT22;11067;48.788;9.208;2023-04-22T01:01:01;12.30;99.90
21811;DHT22;11067;48.788;9.208;2023-04-22T01:03:28;12.20;99.90
21811;DHT22;11067;48.788;9.208;2023-04-22T01:05:55;12.20;99.90
21811;DHT22;11067;48.788;9.208;2023-04-22T01:08:24;12.20;99.90
21811;DHT22;11067;48.788;9.208;2023-04-22T01:10:52;12.20;99.90
21811;DHT22;11067;48.788;9.208;2023-04-22T01:13:18;12.10;99.90
21811;DHT22;11067;48.788;9.208;2023-04-22T01:15:43;12.10;99.90
21811;DHT22;11067;48.788;9.208;2023-04-22T01:18:09;12.10;99.90
21811;DHT22;11067;48.788;9.208;2023-04-22T01:20:35;12.10;99.90
21811;DHT22;11067;48.788;9.208;2023-04-22T01:23:02;12.10;99.90
21811;DHT22;11067;48.788;9.208;2023-04-22T01:25:28;12.10;99.90
21811;DHT22;11067;48.788;9.208;2023-04-22T01:27:54;12.10;99.90
21811;DHT22;11067;48.788;9.208;2023-04-22T01:30:20;12.00;99.90
21811;DHT22;11067;48.788;9.208;2023-04-22T01:32:46;12.00;99.90
21811;DHT22;11067;48.788;9.208;2023-04-22T01:35:12;11.90;99.90
21811;DHT22;11067;48.788;9.208;2023-04-22T01:37:38;11.90;99.90
21811;DHT22;11067;48.788;9.208;2023-04-22T01:40:04;11.80;99.90
21811;DHT22;11067;48.788;9.208;2023-04-22T01:42:30;11.80;99.90
21811;DHT22;11067;48.788;9.208;2023-04-22T01:44:56;11.70;99.90
21811;DHT22;11067;48.788;9.208;2023-04-22T01:47:22;11.70;99.90
21811;DHT22;11067;48.788;9.208;2023-04-22T01:49:47;11.70;99.90
21811;DHT22;11067;48.788;9.208;2023-04-22T01:52:13;11.70;99.90
21811;DHT22;11067;48.788;9.208;2023-04-22T01:54:39;11.70;99.90
21811;DHT22;11067;48.788;9.208;2023-04-22T01:57:09;11.80;99.90
21811;DHT22;11067;48.788;9.208;2023-04-22T01:59:38;11.80;99.90
21811;DHT22;11067;48.788;9.208;2023-04-22T02:02:04;11.70;99.90
21811;DHT22;11067;48.788;9.208;2023-04-22T02:04:30;11.70;99.90
21811;DHT22;11067;48.788;9.208;2023-04-22T02:06:56;11.60;99.90
21811;DHT22;11067;48.788;9.208;2023-04-22T02:09:21;11.60;99.90
21811;DHT22;11067;48.788;9.208;2023-04-22T02:11:47;11.50;99.90
21811;DHT22;11067;48.788;9.208;2023-04-22T02:14:12;11.50;99.90
21811;DHT22;11067;48.788;9.208;2023-04-22T02:16:40;11.50;99.90
21811;DHT22;11067;48.788;9.208;2023-04-22T02:19:05;11.50;99.90
21811;DHT22;11067;48.788;9.208;2023-04-22T02:21:31;11.40;99.90
21811;DHT22;11067;48.788;9.208;2023-04-22T02:23:57;11.50;99.90
21811;DHT22;11067;48.788;9.208;2023-04-22T02:26:22;11.50;99.90
21811;DHT22;11067;48.788;9.208;2023-04-22T02:28:50;11.50;99.90
21811;DHT22;11067;48.788;9.208;2023-04-22T02:31:15;11.50;99.90
21811;DHT22;11067;48.788;9.208;2023-04-22T02:33:41;11.50;99.90
21811;DHT22;11067;48.788;9.208;2023-04-22T02:36:07;11.40;99.90
21811;DHT22;11067;48.788;9.208;2023-04-22T02:38:32;11.50;99.90
21811;DHT22;11067;48.788;9.208;2023-04-22T02:40:58;11.40;99.90
21811;DHT22;11067;48.788;9.208;2023-04-22T02:43:23;11.40;99.90
21811;DHT22;11067;48.788;9.208;2023-04-22T02:45:49;11.40;99.90
21811;DHT22;11067;48.788;9.208;2023-04-22T02:48:14;11.40;99.90
21811;DHT22;11067;48.788;9.208;2023-04-22T02:50:40;11.30;99.90
21811;DHT22;11067;48.788;9.208;2023-04-22T02:53:06;11.30;99.90
21811;DHT22;11067;48.788;9.208;2023-04-22T02:55:32;11.30;99.90
21811;DHT22;11067;48.788;9.208;2023-04-22T02:57:57;11.20;99.90
21811;DHT22;11067;48.788;9.208;2023-04-22T03:00:23;11.20;99.90
21811;DHT22;11067;48.788;9.208;2023-04-22T03:02:48;11.20;99.90
21811;DHT22;11067;48.788;9.208;2023-04-22T03:05:14;11.10;99.90
21811;DHT22;11067;48.788;9.208;2023-04-22T03:07:40;11.10;99.90
21811;DHT22;11067;48.788;9.208;2023-04-22T03:10:06;11.20;99.90
21811;DHT22;11067;48.788;9.208;2023-04-22T03:12:32;11.10;99.90
21811;DHT22;11067;48.788;9.208;2023-04-22T03:14:57;11.10;99.90
21811;DHT22;11067;48.788;9.208;2023-04-22T03:17:23;11.20;99.90
21811;DHT22;11067;48.788;9.208;2023-04-22T03:19:50;11.20;99.90
21811;DHT22;11067;48.788;9.208;2023-04-22T03:22:15;11.10;99.90
21811;DHT22;11067;48.788;9.208;2023-04-22T03:24:41;11.10;99.90
21811;DHT22;11067;48.788;9.208;2023-04-22T03:27:08;11.10;99.90
21811;DHT22;11067;48.788;9.208;2023-04-22T03:29:33;11.10;99.90
21811;DHT22;11067;48.788;9.208;2023-04-22T03:31:59;11.10;99.90
21811;DHT22;11067;48.788;9.208;2023-04-22T03:34:25;11.10;99.90
21811;DHT22;11067;48.788;9.208;2023-04-22T03:36:51;11.10;99.90
21811;DHT22;11067;48.788;9.208;2023-04-22T03:39:16;11.00;99.90
21811;DHT22;11067;48.788;9.208;2023-04-22T03:41:42;11.00;99.90
21811;DHT22;11067;48.788;9.208;2023-04-22T03:44:07;11.00;99.90
21811;DHT22;11067;48.788;9.208;2023-04-22T03:46:33;10.90;99.90
21811;DHT22;11067;48.788;9.208;2023-04-22T03:48:58;10.90;99.90
21811;DHT22;11067;48.788;9.208;2023-04-22T03:51:24;10.90;99.90
21811;DHT22;11067;48.788;9.208;2023-04-22T03:53:50;10.80;99.90
21811;DHT22;11067;48.788;9.208;2023-04-22T03:56:15;10.80;99.90
21811;DHT22;11067;48.788;9.208;2023-04-22T03:58:40;10.80;99.90
21811;DHT22;11067;48.788;9.208;2023-04-22T04:01:06;10.80;99.90
21811;DHT22;11067;48.788;9.208;2023-04-22T04:03:32;10.80;99.90
21811;DHT22;11067;48.788;9.208;2023-04-22T04:05:57;10.80;99.90
21811;DHT22;11067;48.788;9.208;2023-04-22T04:08:23;10.80;99.90
21811;DHT22;11067;48.788;9.208;2023-04-22T04:10:48;10.80;99.90
21811;DHT22;11067;48.788;9.208;2023-04-22T04:13:14;10.90;99.90
21811;DHT22;11067;48.788;9.208;2023-04-22T04:15:39;10.90;99.90
21811;DHT22;11067;48.788;9.208;2023-04-22T04:18:05;10.90;99.90
21811;DHT22;11067;48.788;9.208;2023-04-22T04:20:30;10.90;99.90
21811;DHT22;11067;48.788;9.208;2023-04-22T04:22:56;10.80;99.90
21811;DHT22;11067;48.788;9.208;2023-04-22T04:25:22;10.80;99.90
21811;DHT22;11067;48.788;9.208;2023-04-22T04:27:47;10.70;99.90
21811;DHT22;11067;48.788;9.208;2023-04-22T04:30:14;10.60;99.90
21811;DHT22;11067;48.788;9.208;2023-04-22T04:32:40;10.40;99.90
21811;DHT22;11067;48.788;9.208;2023-04-22T04:35:07;10.50;99.90
21811;DHT22;11067;48.788;9.208;2023-04-22T04:37:33;10.50;99.90
21811;DHT22;11067;48.788;9.208;2023-04-22T04:39:58;10.60;99.90
21811;DHT22;11067;48.788;9.208;2023-04-22T04:42:24;10.60;99.90
21811;DHT22;11067;48.788;9.208;2023-04-22T04:44:50;10.60;99.90
21811;DHT22;11067;48.788;9.208;2023-04-22T04:47:16;10.60;99.90
21811;DHT22;11067;48.788;9.208;2023-04-22T04:49:41;10.60;99.90
21811;DHT22;11067;48.788;9.208;2023-04-22T04:52:08;10.60;99.90
21811;DHT22;11067;48.788;9.208;2023-04-22T04:54:36;10.60;99.90
21811;DHT22;11067;48.788;9.208;2023-04-22T04:57:01;10.70;99.90
21811;DHT22;11067;48.788;9.208;2023-04-22T04:59:27;10.70;99.90
21811;DHT22;11067;48.788;9.208;2023-04-22T05:01:53;10.70;99.90
21811;DHT22;11067;48.788;9.208;2023-04-22T05:04:20;10.80;99.90
21811;DHT22;11067;48.788;9.208;2023-04-22T05:06:46;10.70;99.90
21811;DHT22;11067;48.788;9.208;2023-04-22T05:09:11;10.70;99.90
21811;DHT22;11067;48.788;9.208;2023-04-22T05:11:37;10.70;99.90
21811;DHT22;11067;48.788;9.208;2023-04-22T05:14:04;10.70;99.90
21811;DHT22;11067;48.788;9.208;2023-04-22T05:16:30;10.60;99.90
21811;DHT22;11067;48.788;9.208;2023-04-22T05:18:56;10.70;99.90
21811;DHT22;11067;48.788;9.208;2023-04-22T05:21:21;10.70;99.90
21811;DHT22;11067;48.788;9.208;2023-04-22T05:23:47;10.70;99.90
21811;DHT22;11067;48.788;9.208;2023-04-22T05:26:13;10.70;99.90
21811;DHT22;11067;48.788;9.208;2023-04-22T05:28:38;10.80;99.90
21811;DHT22;11067;48.788;9.208;2023-04-22T05:31:04;10.90;99.90
21811;DHT22;11067;48.788;9.208;2023-04-22T05:33:29;10.90;99.90
21811;DHT22;11067;48.788;9.208;2023-04-22T05:35:55;10.90;99.90
21811;DHT22;11067;48.788;9.208;2023-04-22T05:38:20;10.90;99.90
21811;DHT22;11067;48.788;9.208;2023-04-22T05:40:46;11.00;99.90
21811;DHT22;11067;48.788;9.208;2023-04-22T05:43:11;11.00;99.90
21811;DHT22;11067;48.788;9.208;2023-04-22T05:45:37;11.00;99.90
21811;DHT22;11067;48.788;9.208;2023-04-22T05:48:02;11.00;99.90
21811;DHT22;11067;48.788;9.208;2023-04-22T05:50:28;11.10;99.90
21811;DHT22;11067;48.788;9.208;2023-04-22T05:52:53;11.00;99.90
21811;DHT22;11067;48.788;9.208;2023-04-22T05:55:19;11.10;99.90
21811;DHT22;11067;48.788;9.208;2023-04-22T05:57:44;11.20;99.90
21811;DHT22;11067;48.788;9.208;2023-04-22T06:00:10;11.30;99.90
21811;DHT22;11067;48.788;9.208;2023-04-22T06:02:36;11.40;99.90
21811;DHT22;11067;48.788;9.208;2023-04-22T06:05:01;11.50;99.90
21811;DHT22;11067;48.788;9.208;2023-04-22T06:07:27;11.80;99.90
21811;DHT22;11067;48.788;9.208;2023-04-22T06:09:53;11.80;99.90
21811;DHT22;11067;48.788;9.208;2023-04-22T06:12:18;11.80;99.90
21811;DHT22;11067;48.788;9.208;2023-04-22T06:14:44;11.90;99.90
21811;DHT22;11067;48.788;9.208;2023-04-22T06:17:09;12.10;99.90
21811;DHT22;11067;48.788;9.208;2023-04-22T06:19:35;12.10;99.90
21811;DHT22;11067;48.788;9.208;2023-04-22T06:22:01;12.20;99.90
21811;DHT22;11067;48.788;9.208;2023-04-22T06:24:26;12.00;99.90
21811;DHT22;11067;48.788;9.208;2023-04-22T06:26:52;12.10;99.90
21811;DHT22;11067;48.788;9.208;2023-04-22T06:29:18;12.30;99.90
21811;DHT22;11067;48.788;9.208;2023-04-22T06:31:43;12.40;99.90
21811;DHT22;11067;48.788;9.208;2023-04-22T06:34:09;12.20;99.90
21811;DHT22;11067;48.788;9.208;2023-04-22T06:36:34;12.20;99.90
21811;DHT22;11067;48.788;9.208;2023-04-22T06:39:04;12.30;99.90
21811;DHT22;11067;48.788;9.208;2023-04-22T06:41:30;12.30;99.90
21811;DHT22;11067;48.788;9.208;2023-04-22T06:43:57;12.40;99.90
21811;DHT22;11067;48.788;9.208;2023-04-22T06:46:23;12.40;99.90
21811;DHT22;11067;48.788;9.208;2023-04-22T06:48:48;12.50;99.90
21811;DHT22;11067;48.788;9.208;2023-04-22T06:51:14;12.50;99.90
21811;DHT22;11067;48.788;9.208;2023-04-22T06:53:39;12.50;99.90
21811;DHT22;11067;48.788;9.208;2023-04-22T06:56:05;12.50;99.90
21811;DHT22;11067;48.788;9.208;2023-04-22T06:58:31;12.60;99.90
21811;DHT22;11067;48.788;9.208;2023-04-22T07:00:56;12.50;99.90
21811;DHT22;11067;48.788;9.208;2023-04-22T07:03:22;12.50;99.90
21811;DHT22;11067;48.788;9.208;2023-04-22T07:05:47;12.70;99.90
21811;DHT22;11067;48.788;9.208;2023-04-22T07:08:13;12.70;99.90
21811;DHT22;11067;48.788;9.208;2023-04-22T07:10:39;12.70;99.90
21811;DHT22;11067;48.788;9.208;2023-04-22T07:13:04;12.80;99.90
21811;DHT22;11067;48.788;9.208;2023-04-22T07:15:30;13.00;99.90
21811;DHT22;11067;48.788;9.208;2023-04-22T07:17:55;13.10;99.90
21811;DHT22;11067;48.788;9.208;2023-04-22T07:20:21;13.40;99.90
21811;DHT22;11067;48.788;9.208;2023-04-22T07:22:47;13.30;99.90
21811;DHT22;11067;48.788;9.208;2023-04-22T07:25:12;13.50;99.90
21811;DHT22;11067;48.788;9.208;2023-04-22T07:27:38;13.60;99.90
21811;DHT22;11067;48.788;9.208;2023-04-22T07:30:05;13.50;99.90
21811;DHT22;11067;48.788;9.208;2023-04-22T07:32:31;13.60;99.90
21811;DHT22;11067;48.788;9.208;2023-04-22T07:34:57;13.50;99.90
21811;DHT22;11067;48.788;9.208;2023-04-22T07:37:22;13.60;99.90
21811;DHT22;11067;48.788;9.208;2023-04-22T07:39:48;13.70;99.90
21811;DHT22;11067;48.788;9.208;2023-04-22T07:42:13;13.70;99.90
21811;DHT22;11067;48.788;9.208;2023-04-22T07:44:39;13.90;99.90
21811;DHT22;11067;48.788;9.208;2023-04-22T07:47:05;14.00;99.90
21811;DHT22;11067;48.788;9.208;2023-04-22T07:49:32;14.10;99.90
21811;DHT22;11067;48.788;9.208;2023-04-22T07:51:58;14.30;99.90
21811;DHT22;11067;48.788;9.208;2023-04-22T07:54:23;14.30;99.90
21811;DHT22;11067;48.788;9.208;2023-04-22T07:56:49;14.50;99.90
21811;DHT22;11067;48.788;9.208;2023-04-22T07:59:15;14.50;99.90
21811;DHT22;11067;48.788;9.208;2023-04-22T08:01:41;14.60;99.90
21811;DHT22;11067;48.788;9.208;2023-04-22T08:04:06;15.10;99.90
21811;DHT22;11067;48.788;9.208;2023-04-22T08:06:32;15.10;99.90
21811;DHT22;11067;48.788;9.208;2023-04-22T08:08:57;15.10;99.90
21811;DHT22;11067;48.788;9.208;2023-04-22T08:11:23;15.30;99.90
21811;DHT22;11067;48.788;9.208;2023-04-22T08:13:49;15.50;99.90
21811;DHT22;11067;48.788;9.208;2023-04-22T08:16:15;15.60;99.90
21811;DHT22;11067;48.788;9.208;2023-04-22T08:18:40;15.80;99.90
21811;DHT22;11067;48.788;9.208;2023-04-22T08:21:06;16.20;99.90
21811;DHT22;11067;48.788;9.208;2023-04-22T08:23:31;16.20;99.90
21811;DHT22;11067;48.788;9.208;2023-04-22T08:25:57;16.20;99.90
21811;DHT22;11067;48.788;9.208;2023-04-22T08:28:23;16.40;99.90
21811;DHT22;11067;48.788;9.208;2023-04-22T08:30:48;16.20;99.90
21811;DHT22;11067;48.788;9.208;2023-04-22T08:33:15;16.10;99.90
21811;DHT22;11067;48.788;9.208;2023-04-22T08:35:41;16.00;99.90
21811;DHT22;11067;48.788;9.208;2023-04-22T08:38:06;16.00;99.90
21811;DHT22;11067;48.788;9.208;2023-04-22T08:40:33;16.00;99.90
21811;DHT22;11067;48.788;9.208;2023-04-22T08:42:59;16.20;99.90
21811;DHT22;11067;48.788;9.208;2023-04-22T08:45:24;16.60;99.90
21811;DHT22;11067;48.788;9.208;2023-04-22T08:47:51;16.90;99.90
21811;DHT22;11067;48.788;9.208;2023-04-22T08:50:19;17.10;99.90
21811;DHT22;11067;48.788;9.208;2023-04-22T08:52:45;17.20;99.90
21811;DHT22;11067;48.788;9.208;2023-04-22T08:55:11;17.30;99.90
21811;DHT22;11067;48.788;9.208;2023-04-22T08:57:38;17.50;99.90
21811;DHT22;11067;48.788;9.208;2023-04-22T09:00:04;17.80;99.90
21811;DHT22;11067;48.788;9.208;2023-04-22T09:02:31;17.80;99.90
21811;DHT22;11067;48.788;9.208;2023-04-22T09:04:57;17.70;99.90
21811;DHT22;11067;48.788;9.208;2023-04-22T09:07:29;18.00;99.90
21811;DHT22;11067;48.788;9.208;2023-04-22T09:09:56;18.20;99.90
21811;DHT22;11067;48.788;9.208;2023-04-22T09:12:22;18.20;99.90
21811;DHT22;11067;48.788;9.208;2023-04-22T09:14:50;18.50;99.90
21811;DHT22;11067;48.788;9.208;2023-04-22T09:17:17;18.50;99.90
21811;DHT22;11067;48.788;9.208;2023-04-22T09:19:43;18.70;99.90
21811;DHT22;11067;48.788;9.208;2023-04-22T09:22:11;18.80;99.90
21811;DHT22;11067;48.788;9.208;2023-04-22T09:24:42;18.70;99.90
21811;DHT22;11067;48.788;9.208;2023-04-22T09:27:08;19.00;99.90
21811;DHT22;11067;48.788;9.208;2023-04-22T09:29:35;19.00;99.90
21811;DHT22;11067;48.788;9.208;2023-04-22T09:32:08;19.00;99.90
21811;DHT22;11067;48.788;9.208;2023-04-22T09:34:47;19.00;99.90
21811;DHT22;11067;48.788;9.208;2023-04-22T09:37:13;19.30;99.90
21811;DHT22;11067;48.788;9.208;2023-04-22T09:39:41;19.30;99.90
21811;DHT22;11067;48.788;9.208;2023-04-22T09:42:07;19.30;99.90
21811;DHT22;11067;48.788;9.208;2023-04-22T09:44:33;19.60;99.90
21811;DHT22;11067;48.788;9.208;2023-04-22T09:46:59;19.90;99.90
21811;DHT22;11067;48.788;9.208;2023-04-22T09:49:26;19.90;99.90
21811;DHT22;11067;48.788;9.208;2023-04-22T09:51:56;19.90;99.90
21811;DHT22;11067;48.788;9.208;2023-04-22T09:54:22;19.90;99.90
21811;DHT22;11067;48.788;9.208;2023-04-22T09:56:51;19.90;99.90
21811;DHT22;11067;48.788;9.208;2023-04-22T09:59:26;20.30;99.90
21811;DHT22;11067;48.788;9.208;2023-04-22T10:01:58;20.40;99.90
21811;DHT22;11067;48.788;9.208;2023-04-22T10:04:25;20.40;99.90
21811;DHT22;11067;48.788;9.208;2023-04-22T10:06:51;20.50;99.90
21811;DHT22;11067;48.788;9.208;2023-04-22T10:09:20;20.60;99.90
21811;DHT22;11067;48.788;9.208;2023-04-22T10:11:46;21.30;99.90
21811;DHT22;11067;48.788;9.208;2023-04-22T10:14:12;21.50;99.90
21811;DHT22;11067;48.788;9.208;2023-04-22T10:16:40;21.60;99.90
21811;DHT22;11067;48.788;9.208;2023-04-22T10:19:09;21.60;99.90
21811;DHT22;11067;48.788;9.208;2023-04-22T10:21:36;21.50;99.90
21811;DHT22;11067;48.788;9.208;2023-04-22T10:24:02;21.20;99.90
21811;DHT22;11067;48.788;9.208;2023-04-22T10:26:42;21.40;99.90
21811;DHT22;11067;48.788;9.208;2023-04-22T10:29:14;21.50;99.90
21811;DHT22;11067;48.788;9.208;2023-04-22T10:31:54;21.50;99.90
21811;DHT22;11067;48.788;9.208;2023-04-22T10:34:22;21.60;99.90
21811;DHT22;11067;48.788;9.208;2023-04-22T10:36:58;21.50;99.90
21811;DHT22;11067;48.788;9.208;2023-04-22T10:39:26;21.60;99.90
21811;DHT22;11067;48.788;9.208;2023-04-22T10:42:07;21.20;99.90
21811;DHT22;11067;48.788;9.208;2023-04-22T10:44:51;21.30;99.90
21811;DHT22;11067;48.788;9.208;2023-04-22T10:47:27;21.70;99.90
21811;DHT22;11067;48.788;9.208;2023-04-22T10:52:36;21.80;99.90
21811;DHT22;11067;48.788;9.208;2023-04-22T10:55:02;21.80;99.90
21811;DHT22;11067;48.788;9.208;2023-04-22T10:57:30;22.00;99.90
21811;DHT22;11067;48.788;9.208;2023-04-22T11:00:47;22.40;99.90
21811;DHT22;11067;48.788;9.208;2023-04-22T11:03:11;22.40;99.90
21811;DHT22;11067;48.788;9.208;2023-04-22T11:05:38;22.30;99.90
21811;DHT22;11067;48.788;9.208;2023-04-22T11:08:14;22.60;99.70
21811;DHT22;11067;48.788;9.208;2023-04-22T11:10:46;22.70;99.80
21811;DHT22;11067;48.788;9.208;2023-04-22T11:13:17;22.90;99.90
21811;DHT22;11067;48.788;9.208;2023-04-22T11:15:48;23.00;99.90
21811;DHT22;11067;48.788;9.208;2023-04-22T11:18:24;23.10;94.00
21811;DHT22;11067;48.788;9.208;2023-04-22T11:20:51;23.00;93.80
21811;DHT22;11067;48.788;9.208;2023-04-22T11:23:25;22.80;91.20
21811;DHT22;11067;48.788;9.208;2023-04-22T11:26:01;23.00;92.10
21811;DHT22;11067;48.788;9.208;2023-04-22T11:28:28;23.40;90.90
21811;DHT22;11067;48.788;9.208;2023-04-22T11:31:04;23.10;91.20
21811;DHT22;11067;48.788;9.208;2023-04-22T11:33:32;23.40;92.60
21811;DHT22;11067;48.788;9.208;2023-04-22T11:35:58;23.60;83.80
21811;DHT22;11067;48.788;9.208;2023-04-22T11:38:24;23.40;83.70
21811;DHT22;11067;48.788;9.208;2023-04-22T11:40:49;23.40;76.90
21811;DHT22;11067;48.788;9.208;2023-04-22T11:43:15;23.60;74.80
21811;DHT22;11067;48.788;9.208;2023-04-22T11:45:42;23.70;73.20
21811;DHT22;11067;48.788;9.208;2023-04-22T11:48:10;23.90;73.70
21811;DHT22;11067;48.788;9.208;2023-04-22T11:50:38;24.50;75.90
21811;DHT22;11067;48.788;9.208;2023-04-22T11:53:17;24.60;75.10
21811;DHT22;11067;48.788;9.208;2023-04-22T11:55:45;24.90;70.00
21811;DHT22;11067;48.788;9.208;2023-04-22T11:58:14;24.60;68.40
21811;DHT22;11067;48.788;9.208;2023-04-22T12:00:42;24.60;68.00
21811;DHT22;11067;48.788;9.208;2023-04-22T12:03:17;24.60;67.50
21811;DHT22;11067;48.788;9.208;2023-04-22T12:05:45;24.30;66.50
21811;DHT22;11067;48.788;9.208;2023-04-22T12:08:18;23.90;72.40
21811;DHT22;11067;48.788;9.208;2023-04-22T12:10:49;23.80;72.50
21811;DHT22;11067;48.788;9.208;2023-04-22T12:13:22;24.20;70.10
21811;DHT22;11067;48.788;9.208;2023-04-22T12:15:51;24.40;68.40
21811;DHT22;11067;48.788;9.208;2023-04-22T12:18:31;24.20;67.30
21811;DHT22;11067;48.788;9.208;2023-04-22T12:21:11;24.10;68.20
21811;DHT22;11067;48.788;9.208;2023-04-22T12:23:44;24.20;68.70
21811;DHT22;11067;48.788;9.208;2023-04-22T12:26:11;24.50;68.70
21811;DHT22;11067;48.788;9.208;2023-04-22T12:28:37;24.30;72.50
21811;DHT22;11067;48.788;9.208;2023-04-22T12:31:03;24.30;71.90
21811;DHT22;11067;48.788;9.208;2023-04-22T12:33:30;24.20;72.50
21811;DHT22;11067;48.788;9.208;2023-04-22T12:35:55;24.50;72.70
21811;DHT22;11067;48.788;9.208;2023-04-22T12:38:21;24.20;73.90
21811;DHT22;11067;48.788;9.208;2023-04-22T12:40:47;23.80;73.60
21811;DHT22;11067;48.788;9.208;2023-04-22T12:43:12;24.00;72.60
21811;DHT22;11067;48.788;9.208;2023-04-22T12:45:38;24.00;71.80
21811;DHT22;11067;48.788;9.208;2023-04-22T12:48:03;23.80;72.70
21811;DHT22;11067;48.788;9.208;2023-04-22T12:50:29;24.10;73.60
21811;DHT22;11067;48.788;9.208;2023-04-22T12:52:54;24.30;74.30
21811;DHT22;11067;48.788;9.208;2023-04-22T12:55:20;24.10;72.40
21811;DHT22;11067;48.788;9.208;2023-04-22T12:57:48;24.30;73.10
21811;DHT22;11067;48.788;9.208;2023-04-22T13:00:14;24.60;70.80
21811;DHT22;11067;48.788;9.208;2023-04-22T13:02:44;24.60;70.20
21811;DHT22;11067;48.788;9.208;2023-04-22T13:05:10;24.40;68.50
21811;DHT22;11067;48.788;9.208;2023-04-22T13:07:36;24.40;66.80
21811;DHT22;11067;48.788;9.208;2023-04-22T13:10:06;24.50;66.50
21811;DHT22;11067;48.788;9.208;2023-04-22T13:12:32;24.80;65.60
21811;DHT22;11067;48.788;9.208;2023-04-22T13:14:58;24.60;64.80
21811;DHT22;11067;48.788;9.208;2023-04-22T13:17:24;24.50;63.80
21811;DHT22;11067;48.788;9.208;2023-04-22T13:19:50;24.30;64.30
21811;DHT22;11067;48.788;9.208;2023-04-22T13:22:16;24.00;64.60
21811;DHT22;11067;48.788;9.208;2023-04-22T13:24:42;23.70;65.60
21811;DHT22;11067;48.788;9.208;2023-04-22T13:27:07;23.90;66.50
21811;DHT22;11067;48.788;9.208;2023-04-22T13:29:33;23.80;67.20
21811;DHT22;11067;48.788;9.208;2023-04-22T13:31:59;23.70;67.60
21811;DHT22;11067;48.788;9.208;2023-04-22T13:34:25;23.30;68.80
21811;DHT22;11067;48.788;9.208;2023-04-22T13:36:50;23.40;68.80
21811;DHT22;11067;48.788;9.208;2023-04-22T13:39:16;23.20;70.50
21811;DHT22;11067;48.788;9.208;2023-04-22T13:41:43;23.30;71.20
21811;DHT22;11067;48.788;9.208;2023-04-22T13:44:12;23.30;71.30
21811;DHT22;11067;48.788;9.208;2023-04-22T13:46:38;23.10;71.30
21811;DHT22;11067;48.788;9.208;2023-04-22T13:49:04;23.10;71.80
21811;DHT22;11067;48.788;9.208;2023-04-22T13:51:30;23.20;72.20
21811;DHT22;11067;48.788;9.208;2023-04-22T13:53:57;23.00;73.00
21811;DHT22;11067;48.788;9.208;2023-04-22T13:56:23;22.90;73.20
21811;DHT22;11067;48.788;9.208;2023-04-22T13:58:50;22.60;91.20
21811;DHT22;11067;48.788;9.208;2023-04-22T14:01:16;22.20;96.90
21811;DHT22;11067;48.788;9.208;2023-04-22T14:03:42;22.10;98.50
21811;DHT22;11067;48.788;9.208;2023-04-22T14:06:07;22.10;99.00
21811;DHT22;11067;48.788;9.208;2023-04-22T14:08:33;22.00;99.20
21811;DHT22;11067;48.788;9.208;2023-04-22T14:10:59;22.00;99.20
21811;DHT22;11067;48.788;9.208;2023-04-22T14:13:28;22.20;97.20
21811;DHT22;11067;48.788;9.208;2023-04-22T14:15:54;22.30;95.40
21811;DHT22;11067;48.788;9.208;2023-04-22T14:18:20;22.50;94.80
21811;DHT22;11067;48.788;9.208;2023-04-22T14:20:48;22.50;86.00
21811;DHT22;11067;48.788;9.208;2023-04-22T14:23:14;22.70;83.80
21811;DHT22;11067;48.788;9.208;2023-04-22T14:25:40;22.70;85.50
21811;DHT22;11067;48.788;9.208;2023-04-22T14:28:05;22.90;84.10
21811;DHT22;11067;48.788;9.208;2023-04-22T14:30:31;23.00;78.60
21811;DHT22;11067;48.788;9.208;2023-04-22T14:32:57;22.80;78.90
21811;DHT22;11067;48.788;9.208;2023-04-22T14:35:24;22.80;78.40
21811;DHT22;11067;48.788;9.208;2023-04-22T14:37:50;22.70;78.50
21811;DHT22;11067;48.788;9.208;2023-04-22T14:40:16;22.50;80.50
21811;DHT22;11067;48.788;9.208;2023-04-22T14:42:41;22.70;81.50
21811;DHT22;11067;48.788;9.208;2023-04-22T14:45:07;22.80;80.90
21811;DHT22;11067;48.788;9.208;2023-04-22T14:47:33;22.40;80.10
21811;DHT22;11067;48.788;9.208;2023-04-22T14:49:59;22.40;81.00
21811;DHT22;11067;48.788;9.208;2023-04-22T14:52:24;22.50;81.50
21811;DHT22;11067;48.788;9.208;2023-04-22T14:54:50;22.50;81.90
21811;DHT22;11067;48.788;9.208;2023-04-22T14:57:16;22.50;81.80
21811;DHT22;11067;48.788;9.208;2023-04-22T14:59:41;22.70;81.30
21811;DHT22;11067;48.788;9.208;2023-04-22T15:02:12;22.60;82.80
21811;DHT22;11067;48.788;9.208;2023-04-22T15:04:41;22.70;82.70
21811;DHT22;11067;48.788;9.208;2023-04-22T15:07:07;22.70;81.90
21811;DHT22;11067;48.788;9.208;2023-04-22T15:09:33;23.00;81.80
21811;DHT22;11067;48.788;9.208;2023-04-22T15:11:58;22.90;82.70
21811;DHT22;11067;48.788;9.208;2023-04-22T15:14:24;23.00;82.90
21811;DHT22;11067;48.788;9.208;2023-04-22T15:16:49;22.80;83.60
21811;DHT22;11067;48.788;9.208;2023-04-22T15:19:15;22.60;84.00
21811;DHT22;11067;48.788;9.208;2023-04-22T15:21:41;22.80;86.30
21811;DHT22;11067;48.788;9.208;2023-04-22T15:24:06;22.70;85.50
21811;DHT22;11067;48.788;9.208;2023-04-22T15:26:32;22.30;87.30
21811;DHT22;11067;48.788;9.208;2023-04-22T15:28:58;22.40;88.80